sensor_id;sensor_type;location;lat;lon;timestamp;temperature;humidity
8231;DHT22;4156;50.908;6.974;2023-09-19T00:02:01;20.10;99.90
8231;DHT22;4156;50.908;6.974;2023-09-19T00:04:31;20.10;99.90
8231;DHT22;4156;50.908;6.974;2023-09-19T00:06:58;20.10;99.90
8231;DHT22;4156;50.908;6.974;2023-09-19T00:09:23;20.10;99.90
8231;DHT22;4156;50.908;6.974;2023-09-19T00:11:52;20.10;99.90
8231;DHT22;4156;50.908;6.974;2023-09-19T00:14:18;20.00;99.90
8231;DHT22;4156;50.908;6.974;2023-09-19T00:16:43;20.00;99.90
8231;DHT22;4156;50.908;6.974;2023-09-19T00:19:09;19.90;99.90
8231;DHT22;4156;50.908;6.974;2023-09-19T00:21:35;19.80;99.90
8231;DHT22;4156;50.908;6.974;2023-09-19T00:24:06;19.80;99.90
8231;DHT22;4156;50.908;6.974;2023-09-19T00:26:32;19.80;99.90
8231;DHT22;4156;50.908;6.974;2023-09-19T00:28:59;19.70;99.90
8231;DHT22;4156;50.908;6.974;2023-09-19T00:31:30;19.70;99.90
8231;DHT22;4156;50.908;6.974;2023-09-19T00:33:56;19.60;99.90
8231;DHT22;4156;50.908;6.974;2023-09-19T00:36:27;19.70;99.90
8231;DHT22;4156;50.908;6.974;2023-09-19T00:38:54;19.70;99.90
8231;DHT22;4156;50.908;6.974;2023-09-19T00:41:20;19.60;99.90
8231;DHT22;4156;50.908;6.974;2023-09-19T00:43:46;19.60;99.90
8231;DHT22;4156;50.908;6.974;2023-09-19T00:46:16;19.50;99.90
8231;DHT22;4156;50.908;6.974;2023-09-19T00:48:42;19.50;99.90
8231;DHT22;4156;50.908;6.974;2023-09-19T00:51:10;19.50;99.90
8231;DHT22;4156;50.908;6.974;2023-09-19T00:53:36;19.50;99.90
8231;DHT22;4156;50.908;6.974;2023-09-19T00:56:03;19.50;99.90
8231;DHT22;4156;50.908;6.974;2023-09-19T00:58:34;19.50;99.90
8231;DHT22;4156;50.908;6.974;2023-09-19T01:01:01;19.50;99.90
8231;DHT22;4156;50.908;6.974;2023-09-19T01:03:28;19.40;99.90
8231;DHT22;4156;50.908;6.974;2023-09-19T01:05:54;19.50;99.90
8231;DHT22;4156;50.908;6.974;2023-09-19T01:08:20;19.50;99.90
8231;DHT22;4156;50.908;6.974;2023-09-19T01:11:15;19.60;99.90
8231;DHT22;4156;50.908;6.974;2023-09-19T01:13:55;19.60;99.90
8231;DHT22;4156;50.908;6.974;2023-09-19T01:16:42;19.50;99.90
8231;DHT22;4156;50.908;6.974;2023-09-19T01:22:05;19.60;99.90
8231;DHT22;4156;50.908;6.974;2023-09-19T01:30:10;19.70;99.90
8231;DHT22;4156;50.908;6.974;2023-09-19T01:32:37;19.60;99.90
8231;DHT22;4156;50.908;6.974;2023-09-19T01:35:04;19.60;99.90
8231;DHT22;4156;50.908;6.974;2023-09-19T01:37:30;19.60;99.90
8231;DHT22;4156;50.908;6.974;2023-09-19T01:40:00;19.70;99.90
8231;DHT22;4156;50.908;6.974;2023-09-19T01:48:03;19.50;99.90
8231;DHT22;4156;50.908;6.974;2023-09-19T01:50:47;19.60;99.90
8231;DHT22;4156;50.908;6.974;2023-09-19T01:53:21;19.60;99.90
8231;DHT22;4156;50.908;6.974;2023-09-19T01:55:50;19.60;99.90
8231;DHT22;4156;50.908;6.974;2023-09-19T01:58:21;19.60;99.90
8231;DHT22;4156;50.908;6.974;2023-09-19T02:00:50;19.60;99.90
8231;DHT22;4156;50.908;6.974;2023-09-19T02:03:20;19.60;99.90
8231;DHT22;4156;50.908;6.974;2023-09-19T02:05:51;19.50;99.90
8231;DHT22;4156;50.908;6.974;2023-09-19T02:08:20;19.50;99.90
8231;DHT22;4156;50.908;6.974;2023-09-19T02:10:46;19.50;99.90
8231;DHT22;4156;50.908;6.974;2023-09-19T02:13:18;19.50;99.90
8231;DHT22;4156;50.908;6.974;2023-09-19T02:15:45;19.40;99.90
8231;DHT22;4156;50.908;6.974;2023-09-19T02:18:12;19.50;99.90
8231;DHT22;4156;50.908;6.974;2023-09-19T02:20:38;19.50;99.90
8231;DHT22;4156;50.908;6.974;2023-09-19T02:23:04;19.50;99.90
8231;DHT22;4156;50.908;6.974;2023-09-19T02:25:30;19.40;99.90
8231;DHT22;4156;50.908;6.974;2023-09-19T02:27:56;19.40;99.90
8231;DHT22;4156;50.908;6.974;2023-09-19T02:30:24;19.30;99.90
8231;DHT22;4156;50.908;6.974;2023-09-19T02:32:51;19.40;99.90
8231;DHT22;4156;50.908;6.974;2023-09-19T02:35:17;19.30;99.90
8231;DHT22;4156;50.908;6.974;2023-09-19T02:37:45;19.40;99.90
8231;DHT22;4156;50.908;6.974;2023-09-19T02:40:11;19.40;99.90
8231;DHT22;4156;50.908;6.974;2023-09-19T02:42:49;19.30;99.90
8231;DHT22;4156;50.908;6.974;2023-09-19T02:45:18;19.20;99.90
8231;DHT22;4156;50.908;6.974;2023-09-19T02:47:47;19.20;99.90
8231;DHT22;4156;50.908;6.974;2023-09-19T02:50:14;19.20;99.90
8231;DHT22;4156;50.908;6.974;2023-09-19T02:52:43;19.20;99.90
8231;DHT22;4156;50.908;6.974;2023-09-19T02:55:10;19.20;99.90
8231;DHT22;4156;50.908;6.974;2023-09-19T02:57:36;19.20;99.90
8231;DHT22;4156;50.908;6.974;2023-09-19T03:00:07;19.20;99.90
8231;DHT22;4156;50.908;6.974;2023-09-19T03:02:33;19.20;99.90
8231;DHT22;4156;50.908;6.974;2023-09-19T03:05:00;19.20;99.90
8231;DHT22;4156;50.908;6.974;2023-09-19T03:07:25;19.20;99.90
8231;DHT22;4156;50.908;6.974;2023-09-19T03:09:51;19.20;99.90
8231;DHT22;4156;50.908;6.974;2023-09-19T03:12:18;19.10;99.90
8231;DHT22;4156;50.908;6.974;2023-09-19T03:14:43;19.20;99.90
8231;DHT22;4156;50.908;6.974;2023-09-19T03:17:09;19.20;99.90
8231;DHT22;4156;50.908;6.974;2023-09-19T03:19:35;19.20;99.90
8231;DHT22;4156;50.908;6.974;2023-09-19T03:22:00;19.10;99.90
8231;DHT22;4156;50.908;6.974;2023-09-19T03:24:26;19.00;99.90
8231;DHT22;4156;50.908;6.974;2023-09-19T03:26:51;19.20;99.90
8231;DHT22;4156;50.908;6.974;2023-09-19T03:29:18;19.20;99.90
8231;DHT22;4156;50.908;6.974;2023-09-19T03:31:43;19.20;99.90
8231;DHT22;4156;50.908;6.974;2023-09-19T03:34:09;19.10;99.90
8231;DHT22;4156;50.908;6.974;2023-09-19T03:36:35;19.00;99.90
8231;DHT22;4156;50.908;6.974;2023-09-19T03:39:01;19.00;99.90
8231;DHT22;4156;50.908;6.974;2023-09-19T03:41:27;18.90;99.90
8231;DHT22;4156;50.908;6.974;2023-09-19T03:43:52;18.90;99.90
8231;DHT22;4156;50.908;6.974;2023-09-19T03:46:18;18.80;99.90
8231;DHT22;4156;50.908;6.974;2023-09-19T03:48:44;18.80;99.90
8231;DHT22;4156;50.908;6.974;2023-09-19T03:51:09;18.70;99.90
8231;DHT22;4156;50.908;6.974;2023-09-19T03:53:36;18.70;99.90
8231;DHT22;4156;50.908;6.974;2023-09-19T03:56:01;18.80;99.90
8231;DHT22;4156;50.908;6.974;2023-09-19T03:58:27;19.00;99.90
8231;DHT22;4156;50.908;6.974;2023-09-19T04:00:56;18.90;99.90
8231;DHT22;4156;50.908;6.974;2023-09-19T04:03:22;18.90;99.90
8231;DHT22;4156;50.908;6.974;2023-09-19T04:05:48;18.80;99.90
8231;DHT22;4156;50.908;6.974;2023-09-19T04:08:13;18.70;99.90
8231;DHT22;4156;50.908;6.974;2023-09-19T04:10:42;18.60;99.90
8231;DHT22;4156;50.908;6.974;2023-09-19T04:13:07;18.60;99.90
8231;DHT22;4156;50.908;6.974;2023-09-19T04:15:33;18.50;99.90
8231;DHT22;4156;50.908;6.974;2023-09-19T04:17:58;18.50;99.90
8231;DHT22;4156;50.908;6.974;2023-09-19T04:20:25;18.50;99.90
8231;DHT22;4156;50.908;6.974;2023-09-19T04:22:51;18.40;99.90
8231;DHT22;4156;50.908;6.974;2023-09-19T04:25:16;18.40;99.90
8231;DHT22;4156;50.908;6.974;2023-09-19T04:27:44;18.50;99.90
8231;DHT22;4156;50.908;6.974;2023-09-19T04:30:09;18.60;99.90
8231;DHT22;4156;50.908;6.974;2023-09-19T04:32:36;18.60;99.90
8231;DHT22;4156;50.908;6.974;2023-09-19T04:35:06;18.60;99.90
8231;DHT22;4156;50.908;6.974;2023-09-19T04:37:37;18.50;99.90
8231;DHT22;4156;50.908;6.974;2023-09-19T04:40:04;18.60;99.90
8231;DHT22;4156;50.908;6.974;2023-09-19T04:42:31;18.60;99.90
8231;DHT22;4156;50.908;6.974;2023-09-19T04:44:57;18.50;99.90
8231;DHT22;4156;50.908;6.974;2023-09-19T04:47:22;18.50;99.90
8231;DHT22;4156;50.908;6.974;2023-09-19T04:49:48;18.50;99.90
8231;DHT22;4156;50.908;6.974;2023-09-19T04:52:13;18.50;99.90
8231;DHT22;4156;50.908;6.974;2023-09-19T04:54:40;18.40;99.90
8231;DHT22;4156;50.908;6.974;2023-09-19T04:57:06;18.40;99.90
8231;DHT22;4156;50.908;6.974;2023-09-19T04:59:32;18.50;99.90
8231;DHT22;4156;50.908;6.974;2023-09-19T05:01:58;18.50;99.90
8231;DHT22;4156;50.908;6.974;2023-09-19T05:04:24;18.40;99.90
8231;DHT22;4156;50.908;6.974;2023-09-19T05:06:49;18.40;99.90
8231;DHT22;4156;50.908;6.974;2023-09-19T05:09:16;18.40;99.90
8231;DHT22;4156;50.908;6.974;2023-09-19T05:11:45;18.40;99.90
8231;DHT22;4156;50.908;6.974;2023-09-19T05:14:11;18.40;99.90
8231;DHT22;4156;50.908;6.974;2023-09-19T05:16:37;18.40;99.90
8231;DHT22;4156;50.908;6.974;2023-09-19T05:19:03;18.30;99.90
8231;DHT22;4156;50.908;6.974;2023-09-19T05:21:30;18.20;99.90
8231;DHT22;4156;50.908;6.974;2023-09-19T05:23:56;18.10;99.90
8231;DHT22;4156;50.908;6.974;2023-09-19T05:26:22;18.20;99.90
8231;DHT22;4156;50.908;6.974;2023-09-19T05:28:47;18.20;99.90
8231;DHT22;4156;50.908;6.974;2023-09-19T05:31:13;18.20;99.90
8231;DHT22;4156;50.908;6.974;2023-09-19T05:33:39;18.20;99.90
8231;DHT22;4156;50.908;6.974;2023-09-19T05:36:05;18.30;99.90
8231;DHT22;4156;50.908;6.974;2023-09-19T05:38:30;18.40;99.90
8231;DHT22;4156;50.908;6.974;2023-09-19T05:40:58;18.40;99.90
8231;DHT22;4156;50.908;6.974;2023-09-19T05:43:23;18.30;99.90
8231;DHT22;4156;50.908;6.974;2023-09-19T05:45:49;18.30;99.90
8231;DHT22;4156;50.908;6.974;2023-09-19T05:48:17;18.30;99.90
8231;DHT22;4156;50.908;6.974;2023-09-19T05:50:43;18.30;99.90
8231;DHT22;4156;50.908;6.974;2023-09-19T05:53:12;18.30;99.90
8231;DHT22;4156;50.908;6.974;2023-09-19T05:55:38;18.20;99.90
8231;DHT22;4156;50.908;6.974;2023-09-19T05:58:04;18.10;99.90
8231;DHT22;4156;50.908;6.974;2023-09-19T06:00:29;18.10;99.90
8231;DHT22;4156;50.908;6.974;2023-09-19T06:02:58;18.10;99.90
8231;DHT22;4156;50.908;6.974;2023-09-19T06:05:25;18.10;99.90
8231;DHT22;4156;50.908;6.974;2023-09-19T06:07:55;18.20;99.90
8231;DHT22;4156;50.908;6.974;2023-09-19T06:10:21;18.20;99.90
8231;DHT22;4156;50.908;6.974;2023-09-19T06:12:48;18.20;99.90
8231;DHT22;4156;50.908;6.974;2023-09-19T06:15:14;18.10;99.90
8231;DHT22;4156;50.908;6.974;2023-09-19T06:17:50;18.10;99.90
8231;DHT22;4156;50.908;6.974;2023-09-19T06:20:16;18.00;99.90
8231;DHT22;4156;50.908;6.974;2023-09-19T06:22:43;18.00;99.90
8231;DHT22;4156;50.908;6.974;2023-09-19T06:25:14;17.90;99.90
8231;DHT22;4156;50.908;6.974;2023-09-19T06:27:51;18.00;99.90
8231;DHT22;4156;50.908;6.974;2023-09-19T06:30:21;18.00;99.90
8231;DHT22;4156;50.908;6.974;2023-09-19T06:32:48;18.10;99.90
8231;DHT22;4156;50.908;6.974;2023-09-19T06:35:15;18.10;99.90
8231;DHT22;4156;50.908;6.974;2023-09-19T06:37:42;18.10;99.90
8231;DHT22;4156;50.908;6.974;2023-09-19T06:40:11;18.10;99.90
8231;DHT22;4156;50.908;6.974;2023-09-19T06:42:44;18.10;99.90
8231;DHT22;4156;50.908;6.974;2023-09-19T06:45:14;18.00;99.90
8231;DHT22;4156;50.908;6.974;2023-09-19T06:47:43;18.10;99.90
8231;DHT22;4156;50.908;6.974;2023-09-19T06:50:10;18.20;99.90
8231;DHT22;4156;50.908;6.974;2023-09-19T06:52:42;18.20;99.90
8231;DHT22;4156;50.908;6.974;2023-09-19T06:55:08;18.20;99.90
8231;DHT22;4156;50.908;6.974;2023-09-19T06:57:39;18.30;99.90
8231;DHT22;4156;50.908;6.974;2023-09-19T07:00:06;18.30;99.90
8231;DHT22;4156;50.908;6.974;2023-09-19T07:02:44;18.30;99.90
8231;DHT22;4156;50.908;6.974;2023-09-19T07:05:09;18.30;99.90
8231;DHT22;4156;50.908;6.974;2023-09-19T07:07:35;18.40;99.90
8231;DHT22;4156;50.908;6.974;2023-09-19T07:10:04;18.40;99.90
8231;DHT22;4156;50.908;6.974;2023-09-19T07:12:35;18.50;99.90
8231;DHT22;4156;50.908;6.974;2023-09-19T07:15:01;18.40;99.90
8231;DHT22;4156;50.908;6.974;2023-09-19T07:17:27;18.50;99.90
8231;DHT22;4156;50.908;6.974;2023-09-19T07:19:54;18.40;99.90
8231;DHT22;4156;50.908;6.974;2023-09-19T07:22:20;18.50;99.90
8231;DHT22;4156;50.908;6.974;2023-09-19T07:24:45;18.40;99.90
8231;DHT22;4156;50.908;6.974;2023-09-19T07:27:12;18.50;99.90
8231;DHT22;4156;50.908;6.974;2023-09-19T07:29:37;18.60;99.90
8231;DHT22;4156;50.908;6.974;2023-09-19T07:32:03;18.60;99.90
8231;DHT22;4156;50.908;6.974;2023-09-19T07:34:29;18.60;99.90
8231;DHT22;4156;50.908;6.974;2023-09-19T07:36:54;18.60;99.90
8231;DHT22;4156;50.908;6.974;2023-09-19T07:39:20;18.70;99.90
8231;DHT22;4156;50.908;6.974;2023-09-19T07:41:46;18.70;99.90
8231;DHT22;4156;50.908;6.974;2023-09-19T07:44:11;18.70;99.90
8231;DHT22;4156;50.908;6.974;2023-09-19T07:46:37;18.70;99.90
8231;DHT22;4156;50.908;6.974;2023-09-19T07:49:03;18.80;99.90
8231;DHT22;4156;50.908;6.974;2023-09-19T07:51:30;18.90;99.90
8231;DHT22;4156;50.908;6.974;2023-09-19T07:53:55;18.90;99.90
8231;DHT22;4156;50.908;6.974;2023-09-19T07:56:21;18.90;99.90
8231;DHT22;4156;50.908;6.974;2023-09-19T07:58:48;18.90;99.90
8231;DHT22;4156;50.908;6.974;2023-09-19T08:01:13;19.00;99.90
8231;DHT22;4156;50.908;6.974;2023-09-19T08:03:39;19.10;99.90
8231;DHT22;4156;50.908;6.974;2023-09-19T08:06:09;19.10;99.90
8231;DHT22;4156;50.908;6.974;2023-09-19T08:08:35;19.10;99.90
8231;DHT22;4156;50.908;6.974;2023-09-19T08:11:05;19.20;99.90
8231;DHT22;4156;50.908;6.974;2023-09-19T08:13:37;19.20;99.90
8231;DHT22;4156;50.908;6.974;2023-09-19T08:16:04;19.20;99.90
8231;DHT22;4156;50.908;6.974;2023-09-19T08:18:30;19.30;99.90
8231;DHT22;4156;50.908;6.974;2023-09-19T08:20:55;19.40;99.90
8231;DHT22;4156;50.908;6.974;2023-09-19T08:23:24;19.40;99.90
8231;DHT22;4156;50.908;6.974;2023-09-19T08:25:49;19.40;99.90
8231;DHT22;4156;50.908;6.974;2023-09-19T08:28:15;19.50;99.90
8231;DHT22;4156;50.908;6.974;2023-09-19T08:30:48;19.50;99.90
8231;DHT22;4156;50.908;6.974;2023-09-19T08:33:14;19.60;99.90
8231;DHT22;4156;50.908;6.974;2023-09-19T08:35:41;19.60;99.90
8231;DHT22;4156;50.908;6.974;2023-09-19T08:38:08;19.70;99.90
8231;DHT22;4156;50.908;6.974;2023-09-19T08:40:40;19.70;99.90
8231;DHT22;4156;50.908;6.974;2023-09-19T08:43:07;19.70;99.90
8231;DHT22;4156;50.908;6.974;2023-09-19T08:45:34;19.70;99.90
8231;DHT22;4156;50.908;6.974;2023-09-19T08:48:39;19.80;99.90
8231;DHT22;4156;50.908;6.974;2023-09-19T08:51:07;19.80;99.90
8231;DHT22;4156;50.908;6.974;2023-09-19T08:56:19;19.80;99.90
8231;DHT22;4156;50.908;6.974;2023-09-19T08:58:51;19.90;99.90
8231;DHT22;4156;50.908;6.974;2023-09-19T09:01:20;19.90;99.90
8231;DHT22;4156;50.908;6.974;2023-09-19T09:03:56;19.90;99.90
8231;DHT22;4156;50.908;6.974;2023-09-19T09:06:23;19.90;99.90
8231;DHT22;4156;50.908;6.974;2023-09-19T09:08:51;19.90;99.90
8231;DHT22;4156;50.908;6.974;2023-09-19T09:11:18;20.00;99.90
8231;DHT22;4156;50.908;6.974;2023-09-19T09:13:44;20.00;99.90
8231;DHT22;4156;50.908;6.974;2023-09-19T09:16:10;20.00;99.90
8231;DHT22;4156;50.908;6.974;2023-09-19T09:18:36;20.10;99.90
8231;DHT22;4156;50.908;6.974;2023-09-19T09:21:02;20.10;99.90
8231;DHT22;4156;50.908;6.974;2023-09-19T09:23:30;20.10;99.90
8231;DHT22;4156;50.908;6.974;2023-09-19T09:25:58;20.10;99.90
8231;DHT22;4156;50.908;6.974;2023-09-19T09:28:28;20.20;99.90
8231;DHT22;4156;50.908;6.974;2023-09-19T09:30:54;20.20;99.90
8231;DHT22;4156;50.908;6.974;2023-09-19T09:33:21;20.20;99.90
8231;DHT22;4156;50.908;6.974;2023-09-19T09:35:51;20.20;99.90
8231;DHT22;4156;50.908;6.974;2023-09-19T09:38:21;20.30;99.90
8231;DHT22;4156;50.908;6.974;2023-09-19T09:40:52;20.30;99.90
8231;DHT22;4156;50.908;6.974;2023-09-19T09:43:36;20.30;99.90
8231;DHT22;4156;50.908;6.974;2023-09-19T09:46:22;20.30;99.90
8231;DHT22;4156;50.908;6.974;2023-09-19T09:51:36;20.40;99.90
8231;DHT22;4156;50.908;6.974;2023-09-19T09:56:55;20.40;99.90
8231;DHT22;4156;50.908;6.974;2023-09-19T09:59:47;20.40;99.90
8231;DHT22;4156;50.908;6.974;2023-09-19T10:02:16;20.40;99.90
8231;DHT22;4156;50.908;6.974;2023-09-19T10:04:50;20.40;99.90
8231;DHT22;4156;50.908;6.974;2023-09-19T10:07:40;20.50;99.90
8231;DHT22;4156;50.908;6.974;2023-09-19T10:10:30;20.50;99.90
8231;DHT22;4156;50.908;6.974;2023-09-19T10:13:05;20.40;99.90
8231;DHT22;4156;50.908;6.974;2023-09-19T10:15:34;20.40;99.90
8231;DHT22;4156;50.908;6.974;2023-09-19T10:18:05;20.40;99.90
8231;DHT22;4156;50.908;6.974;2023-09-19T10:20:34;20.50;99.90
8231;DHT22;4156;50.908;6.974;2023-09-19T10:23:10;20.50;99.90
8231;DHT22;4156;50.908;6.974;2023-09-19T10:25:46;20.50;99.90
8231;DHT22;4156;50.908;6.974;2023-09-19T10:36:06;20.50;99.90
8231;DHT22;4156;50.908;6.974;2023-09-19T10:38:40;20.50;99.90
8231;DHT22;4156;50.908;6.974;2023-09-19T10:41:43;20.50;99.90
8231;DHT22;4156;50.908;6.974;2023-09-19T10:44:15;20.60;99.90
8231;DHT22;4156;50.908;6.974;2023-09-19T10:46:55;20.60;99.90
8231;DHT22;4156;50.908;6.974;2023-09-19T10:49:48;20.60;99.90
8231;DHT22;4156;50.908;6.974;2023-09-19T10:52:25;20.60;99.90
8231;DHT22;4156;50.908;6.974;2023-09-19T10:55:38;20.60;99.90
8231;DHT22;4156;50.908;6.974;2023-09-19T10:58:29;20.60;99.90
8231;DHT22;4156;50.908;6.974;2023-09-19T11:01:09;20.70;99.90
8231;DHT22;4156;50.908;6.974;2023-09-19T11:04:20;20.70;99.90
8231;DHT22;4156;50.908;6.974;2023-09-19T11:07:06;20.60;99.90
8231;DHT22;4156;50.908;6.974;2023-09-19T11:09:56;20.70;99.90
8231;DHT22;4156;50.908;6.974;2023-09-19T11:15:07;20.70;99.90
8231;DHT22;4156;50.908;6.974;2023-09-19T11:17:43;20.70;99.90
8231;DHT22;4156;50.908;6.974;2023-09-19T11:20:21;20.80;99.90
8231;DHT22;4156;50.908;6.974;2023-09-19T11:23:23;20.80;99.90
8231;DHT22;4156;50.908;6.974;2023-09-19T11:26:50;20.80;99.90
8231;DHT22;4156;50.908;6.974;2023-09-19T11:29:30;20.80;99.90
8231;DHT22;4156;50.908;6.974;2023-09-19T11:32:15;20.80;99.90
8231;DHT22;4156;50.908;6.974;2023-09-19T11:34:46;20.80;99.90
8231;DHT22;4156;50.908;6.974;2023-09-19T11:50:35;20.90;99.90
8231;DHT22;4156;50.908;6.974;2023-09-19T12:03:22;20.90;99.90
8231;DHT22;4156;50.908;6.974;2023-09-19T12:14:24;20.90;99.90
8231;DHT22;4156;50.908;6.974;2023-09-19T12:21:03;21.00;99.90
8231;DHT22;4156;50.908;6.974;2023-09-19T12:30:55;21.00;99.90
8231;DHT22;4156;50.908;6.974;2023-09-19T12:33:26;21.00;99.90
8231;DHT22;4156;50.908;6.974;2023-09-19T12:36:46;21.00;99.90
8231;DHT22;4156;50.908;6.974;2023-09-19T12:43:35;21.10;99.90
8231;DHT22;4156;50.908;6.974;2023-09-19T12:46:59;21.10;99.90
8231;DHT22;4156;50.908;6.974;2023-09-19T12:50:19;21.10;99.90
8231;DHT22;4156;50.908;6.974;2023-09-19T12:54:15;21.10;99.90
8231;DHT22;4156;50.908;6.974;2023-09-19T13:11:47;21.10;99.90
8231;DHT22;4156;50.908;6.974;2023-09-19T13:14:46;21.10;99.90
8231;DHT22;4156;50.908;6.974;2023-09-19T13:27:51;21.20;99.90
8231;DHT22;4156;50.908;6.974;2023-09-19T13:30:43;21.20;99.90
8231;DHT22;4156;50.908;6.974;2023-09-19T13:33:14;21.20;99.90
8231;DHT22;4156;50.908;6.974;2023-09-19T13:35:56;21.20;99.90
8231;DHT22;4156;50.908;6.974;2023-09-19T13:38:36;21.20;99.90
8231;DHT22;4156;50.908;6.974;2023-09-19T13:41:04;21.20;99.90
8231;DHT22;4156;50.908;6.974;2023-09-19T13:43:37;21.20;99.90
8231;DHT22;4156;50.908;6.974;2023-09-19T13:46:13;21.20;99.90
8231;DHT22;4156;50.908;6.974;2023-09-19T13:49:10;21.30;99.90
8231;DHT22;4156;50.908;6.974;2023-09-19T13:52:07;21.30;99.90
8231;DHT22;4156;50.908;6.974;2023-09-19T13:55:06;21.30;99.90
8231;DHT22;4156;50.908;6.974;2023-09-19T13:57:47;21.30;99.90
8231;DHT22;4156;50.908;6.974;2023-09-19T14:00:44;21.30;99.90
8231;DHT22;4156;50.908;6.974;2023-09-19T14:03:43;21.30;99.90
8231;DHT22;4156;50.908;6.974;2023-09-19T14:06:18;21.30;99.90
8231;DHT22;4156;50.908;6.974;2023-09-19T14:08:53;21.30;99.90
8231;DHT22;4156;50.908;6.974;2023-09-19T14:11:34;21.40;99.90
8231;DHT22;4156;50.908;6.974;2023-09-19T14:14:12;21.30;99.90
8231;DHT22;4156;50.908;6.974;2023-09-19T14:17:08;21.30;99.90
8231;DHT22;4156;50.908;6.974;2023-09-19T14:20:05;21.30;99.90
8231;DHT22;4156;50.908;6.974;2023-09-19T14:22:55;21.40;99.90
8231;DHT22;4156;50.908;6.974;2023-09-19T14:25:53;21.40;99.90
8231;DHT22;4156;50.908;6.974;2023-09-19T14:28:21;21.40;99.90
8231;DHT22;4156;50.908;6.974;2023-09-19T14:30:56;21.40;99.90
8231;DHT22;4156;50.908;6.974;2023-09-19T14:33:23;21.40;99.90
8231;DHT22;4156;50.908;6.974;2023-09-19T14:35:52;21.40;99.90
8231;DHT22;4156;50.908;6.974;2023-09-19T14:38:19;21.40;99.90
8231;DHT22;4156;50.908;6.974;2023-09-19T14:41:14;21.50;99.90
8231;DHT22;4156;50.908;6.974;2023-09-19T14:43:40;21.50;99.90
8231;DHT22;4156;50.908;6.974;2023-09-19T14:46:07;21.40;99.90
8231;DHT22;4156;50.908;6.974;2023-09-19T14:48:46;21.50;99.90
8231;DHT22;4156;50.908;6.974;2023-09-19T14:51:15;21.40;99.90
8231;DHT22;4156;50.908;6.974;2023-09-19T14:53:56;21.50;99.90
8231;DHT22;4156;50.908;6.974;2023-09-19T14:56:59;21.50;99.90
8231;DHT22;4156;50.908;6.974;2023-09-19T14:59:32;21.50;99.90
8231;DHT22;4156;50.908;6.974;2023-09-19T15:02:02;21.50;99.90
8231;DHT22;4156;50.908;6.974;2023-09-19T15:04:30;21.50;99.90
8231;DHT22;4156;50.908;6.974;2023-09-19T15:06:56;21.50;99.90
8231;DHT22;4156;50.908;6.974;2023-09-19T15:09:25;21.50;99.90
8231;DHT22;4156;50.908;6.974;2023-09-19T15:12:12;21.50;99.90
8231;DHT22;4156;50.908;6.974;2023-09-19T15:14:50;21.50;99.90
8231;DHT22;4156;50.908;6.974;2023-09-19T15:17:46;21.50;99.90
8231;DHT22;4156;50.908;6.974;2023-09-19T15:20:43;21.60;99.90
8231;DHT22;4156;50.908;6.974;2023-09-19T15:23:15;21.50;99.90
8231;DHT22;4156;50.908;6.974;2023-09-19T15:26:12;21.50;99.90
8231;DHT22;4156;50.908;6.974;2023-09-19T15:29:08;21.50;99.90
8231;DHT22;4156;50.908;6.974;2023-09-19T15:31:39;21.50;99.90
8231;DHT22;4156;50.908;6.974;2023-09-19T15:34:13;21.50;99.90
8231;DHT22;4156;50.908;6.974;2023-09-19T15:36:41;21.50;99.90
8231;DHT22;4156;50.908;6.974;2023-09-19T15:39:07;21.50;99.90
8231;DHT22;4156;50.908;6.974;2023-09-19T15:41:37;21.50;99.90
8231;DHT22;4156;50.908;6.974;2023-09-19T15:44:04;21.60;99.90
8231;DHT22;4156;50.908;6.974;2023-09-19T15:46:31;21.50;99.90
8231;DHT22;4156;50.908;6.974;2023-09-19T15:48:58;21.50;99.90
8231;DHT22;4156;50.908;6.974;2023-09-19T15:51:25;21.50;99.90
8231;DHT22;4156;50.908;6.974;2023-09-19T15:53:53;21.50;99.90
8231;DHT22;4156;50.908;6.974;2023-09-19T15:56:20;21.60;99.90
8231;DHT22;4156;50.908;6.974;2023-09-19T15:58:53;21.60;99.90
8231;DHT22;4156;50.908;6.974;2023-09-19T16:01:22;21.60;99.90
8231;DHT22;4156;50.908;6.974;2023-09-19T16:03:50;21.60;99.90
8231;DHT22;4156;50.908;6.974;2023-09-19T16:06:23;21.50;99.90
8231;DHT22;4156;50.908;6.974;2023-09-19T16:08:51;21.50;99.90
8231;DHT22;4156;50.908;6.974;2023-09-19T16:11:17;21.60;99.90
8231;DHT22;4156;50.908;6.974;2023-09-19T16:13:45;21.60;99.90
8231;DHT22;4156;50.908;6.974;2023-09-19T16:16:12;21.50;99.90
8231;DHT22;4156;50.908;6.974;2023-09-19T16:18:51;21.60;99.90
8231;DHT22;4156;50.908;6.974;2023-09-19T16:21:18;21.60;99.90
8231;DHT22;4156;50.908;6.974;2023-09-19T16:23:49;21.60;99.90
8231;DHT22;4156;50.908;6.974;2023-09-19T16:26:15;21.60;99.90
8231;DHT22;4156;50.908;6.974;2023-09-19T16:28:43;21.60;99.90
8231;DHT22;4156;50.908;6.974;2023-09-19T16:31:09;21.60;99.90
8231;DHT22;4156;50.908;6.974;2023-09-19T16:33:37;21.60;99.90
8231;DHT22;4156;50.908;6.974;2023-09-19T16:36:16;21.60;99.90
8231;DHT22;4156;50.908;6.974;2023-09-19T16:38:43;21.60;99.90
8231;DHT22;4156;50.908;6.974;2023-09-19T16:41:09;21.60;99.90
8231;DHT22;4156;50.908;6.974;2023-09-19T16:43:35;21.70;99.90
8231;DHT22;4156;50.908;6.974;2023-09-19T16:46:03;21.70;99.90
8231;DHT22;4156;50.908;6.974;2023-09-19T16:48:35;21.70;99.90
8231;DHT22;4156;50.908;6.974;2023-09-19T16:51:02;21.70;99.90
8231;DHT22;4156;50.908;6.974;2023-09-19T16:53:31;21.70;99.90
8231;DHT22;4156;50.908;6.974;2023-09-19T16:56:04;21.70;99.90
8231;DHT22;4156;50.908;6.974;2023-09-19T16:58:34;21.70;99.90
8231;DHT22;4156;50.908;6.974;2023-09-19T17:01:00;21.70;99.90
8231;DHT22;4156;50.908;6.974;2023-09-19T17:03:26;21.70;99.90
8231;DHT22;4156;50.908;6.974;2023-09-19T17:05:52;21.70;99.90
8231;DHT22;4156;50.908;6.974;2023-09-19T17:08:21;21.70;99.90
8231;DHT22;4156;50.908;6.974;2023-09-19T17:10:47;21.70;99.90
8231;DHT22;4156;50.908;6.974;2023-09-19T17:13:12;21.60;99.90
8231;DHT22;4156;50.908;6.974;2023-09-19T17:15:38;21.50;99.90
8231;DHT22;4156;50.908;6.974;2023-09-19T17:18:04;21.50;99.90
8231;DHT22;4156;50.908;6.974;2023-09-19T17:20:30;21.60;99.90
8231;DHT22;4156;50.908;6.974;2023-09-19T17:22:57;21.60;99.90
8231;DHT22;4156;50.908;6.974;2023-09-19T17:25:23;21.60;99.90
8231;DHT22;4156;50.908;6.974;2023-09-19T17:27:50;21.60;99.90
8231;DHT22;4156;50.908;6.974;2023-09-19T17:30:16;21.60;99.90
8231;DHT22;4156;50.908;6.974;2023-09-19T17:32:45;21.50;99.90
8231;DHT22;4156;50.908;6.974;2023-09-19T17:35:13;21.50;99.90
8231;DHT22;4156;50.908;6.974;2023-09-19T17:37:46;21.50;99.90
8231;DHT22;4156;50.908;6.974;2023-09-19T17:40:12;21.50;99.90
8231;DHT22;4156;50.908;6.974;2023-09-19T17:42:39;21.50;99.90
8231;DHT22;4156;50.908;6.974;2023-09-19T17:45:08;21.50;99.90
8231;DHT22;4156;50.908;6.974;2023-09-19T17:47:35;21.60;99.90
8231;DHT22;4156;50.908;6.974;2023-09-19T17:50:05;21.60;99.90
8231;DHT22;4156;50.908;6.974;2023-09-19T17:52:30;21.50;99.90
8231;DHT22;4156;50.908;6.974;2023-09-19T17:54:57;21.60;99.90
8231;DHT22;4156;50.908;6.974;2023-09-19T17:57:24;21.50;99.90
8231;DHT22;4156;50.908;6.974;2023-09-19T17:59:51;21.40;99.90
8231;DHT22;4156;50.908;6.974;2023-09-19T18:02:16;21.40;99.90
8231;DHT22;4156;50.908;6.974;2023-09-19T18:04:43;21.50;99.90
8231;DHT22;4156;50.908;6.974;2023-09-19T18:07:09;21.40;99.90
8231;DHT22;4156;50.908;6.974;2023-09-19T18:09:34;21.40;99.90
8231;DHT22;4156;50.908;6.974;2023-09-19T18:12:02;21.40;99.90
8231;DHT22;4156;50.908;6.974;2023-09-19T18:14:30;21.40;99.90
8231;DHT22;4156;50.908;6.974;2023-09-19T18:16:57;21.40;99.90